Terminal Aerodrome Forecast
Issued by NWS

Home | Current Version | Previous Version | Text Only | Print | Product List | Glossary Off
Versions: 1 2 3 4 5 6 7 8 9 10 11 12 13 14

000
FTUS43 KTOP 240600 AAA
TAFFOE
TAF AMD
KFOE 240654Z 2407/2506 34012KT P6SM -RASN SCT008 OVC014
      TEMPO 2407/2409 5SM -SN OVC008
     FM240900 34012G21KT 6SM -RASN BR OVC012
     FM241200 32013G20KT P6SM OVC010
     FM241700 32012KT P6SM OVC014
     FM242300 29010KT P6SM SCT025=

USA.gov is the U.S. government's official web portal to all federal, state and local government web resources and services.